createdAt,value
2023-04-26T00:00:44.272Z,73.61
2023-04-26T00:01:46.554Z,74.19
2023-04-26T00:02:49.113Z,74.77
2023-04-26T00:03:51.332Z,74.47
2023-04-26T00:04:57.988Z,74.23
2023-04-26T00:06:05.881Z,74.07
2023-04-26T00:07:08.466Z,74.03
2023-04-26T00:08:10.439Z,74.46
2023-04-26T00:09:12.382Z,74.06
2023-04-26T00:10:14.296Z,74.32
2023-04-26T00:11:16.159Z,74.07
2023-04-26T00:12:19.082Z,73.82
2023-04-26T00:13:21.110Z,74.46
2023-04-26T00:14:22.958Z,74.48
2023-04-26T00:15:24.891Z,74.98
2023-04-26T00:16:26.782Z,75.18
2023-04-26T00:17:29.155Z,75.02
2023-04-26T00:18:31.710Z,74.71
2023-04-26T00:19:33.680Z,74.78
2023-04-26T00:20:35.561Z,75.05
2023-04-26T00:21:38.032Z,74.96
2023-04-26T00:22:40.745Z,75.53
2023-04-26T00:23:43.162Z,75.33
2023-04-26T00:24:45.061Z,75.35
2023-04-26T00:25:46.947Z,75.27
2023-04-26T00:26:48.774Z,74.84
2023-04-26T00:27:52.191Z,74.52
2023-04-26T00:28:54.394Z,73.97
2023-04-26T00:29:56.553Z,74.31
2023-04-26T00:30:58.438Z,74.12
2023-04-26T00:32:00.436Z,74.06
2023-04-26T00:33:02.760Z,73.85
2023-04-26T00:34:04.764Z,74.00
2023-04-26T00:35:07.186Z,74.09
2023-04-26T00:36:09.055Z,74.12
2023-04-26T00:37:10.931Z,74.32
2023-04-26T00:38:13.086Z,74.20
2023-04-26T00:39:14.954Z,73.73
2023-04-26T00:40:17.194Z,73.67
2023-04-26T00:41:19.102Z,73.60
2023-04-26T00:42:20.967Z,73.83
2023-04-26T00:43:23.160Z,74.45
2023-04-26T00:44:25.114Z,74.17
2023-04-26T00:45:27.960Z,74.57
2023-04-26T00:46:31.068Z,74.59
2023-04-26T00:47:33.696Z,74.00
2023-04-26T00:48:38.864Z,74.01
2023-04-26T00:49:40.769Z,73.91
2023-04-26T00:50:42.891Z,73.92
2023-04-26T00:51:45.589Z,73.48
2023-04-26T00:52:48.375Z,74.25
2023-04-26T00:53:50.769Z,73.95
2023-04-26T00:54:54.064Z,74.02
2023-04-26T00:55:56.179Z,74.03
2023-04-26T00:56:58.168Z,73.90
2023-04-26T00:58:00.156Z,74.11
2023-04-26T00:59:03.477Z,74.36
2023-04-26T01:00:06.577Z,74.24
2023-04-26T01:01:08.571Z,74.26
2023-04-26T01:02:12.243Z,74.23
2023-04-26T01:03:14.325Z,74.65
2023-04-26T01:04:17.676Z,74.67
2023-04-26T01:05:19.927Z,74.58
2023-04-26T01:06:22.673Z,74.10
2023-04-26T01:07:24.666Z,74.45
2023-04-26T01:08:26.897Z,73.97
2023-04-26T01:09:32.342Z,74.00
2023-04-26T01:10:36.026Z,74.84
2023-04-26T01:11:38.692Z,74.44
2023-04-26T01:12:41.705Z,74.32
2023-04-26T01:13:44.175Z,74.14
2023-04-26T01:14:47.851Z,73.87
2023-04-26T01:15:51.199Z,73.82
2023-04-26T01:16:53.355Z,73.55
2023-04-26T01:17:55.324Z,73.67
2023-04-26T01:18:57.962Z,73.29
2023-04-26T01:20:00.255Z,72.71
2023-04-26T01:21:03.452Z,72.61
2023-04-26T01:22:05.529Z,72.61
2023-04-26T01:23:08.401Z,72.90
2023-04-26T01:24:12.055Z,73.01
2023-04-26T01:25:16.214Z,72.77
2023-04-26T01:26:18.898Z,72.46
2023-04-26T01:27:22.144Z,72.33
2023-04-26T01:28:24.115Z,72.96
2023-04-26T01:29:27.149Z,72.82
2023-04-26T01:30:29.329Z,72.70
2023-04-26T01:31:31.299Z,72.65
2023-04-26T01:32:33.701Z,72.61
2023-04-26T01:33:35.716Z,73.03
2023-04-26T01:34:37.579Z,73.11
2023-04-26T01:35:39.742Z,72.93
2023-04-26T01:36:42.568Z,72.39
2023-04-26T01:37:44.627Z,72.21
2023-04-26T01:38:46.472Z,72.36
2023-04-26T01:39:48.598Z,72.35
2023-04-26T01:40:50.784Z,72.29
2023-04-26T01:41:52.642Z,73.08
2023-04-26T01:42:54.502Z,72.66
2023-04-26T01:43:56.390Z,72.70
2023-04-26T01:44:59.785Z,73.34
2023-04-26T01:46:05.187Z,73.15
2023-04-26T01:47:07.121Z,73.03
2023-04-26T01:48:09.054Z,72.65
2023-04-26T01:49:11.313Z,71.87
2023-04-26T01:50:13.173Z,71.89
2023-04-26T01:51:15.530Z,71.45
2023-04-26T01:52:17.473Z,72.25
2023-04-26T01:53:21.336Z,72.85
2023-04-26T01:54:23.262Z,73.12
2023-04-26T01:55:25.121Z,73.42
2023-04-26T01:56:27.327Z,73.15
2023-04-26T01:57:29.243Z,73.42
2023-04-26T01:58:31.472Z,73.75
2023-04-26T01:59:33.571Z,73.37
2023-04-26T02:00:35.514Z,73.62
2023-04-26T02:01:37.753Z,73.44
2023-04-26T02:02:39.795Z,72.51
2023-04-26T02:03:41.976Z,72.36
2023-04-26T02:04:43.963Z,72.64
2023-04-26T02:05:46.012Z,72.82
2023-04-26T02:06:48.187Z,72.86
2023-04-26T02:07:51.465Z,72.82
2023-04-26T02:08:54.361Z,72.71
2023-04-26T02:09:56.456Z,72.79
2023-04-26T02:10:58.542Z,72.86
2023-04-26T02:12:00.403Z,72.96
2023-04-26T02:13:02.274Z,73.01
2023-04-26T02:14:04.489Z,72.92
2023-04-26T02:15:06.964Z,72.58
2023-04-26T02:16:09.610Z,72.57
2023-04-26T02:17:11.514Z,72.31
2023-04-26T02:18:13.595Z,72.25
2023-04-26T02:19:16.575Z,72.40
2023-04-26T02:20:18.491Z,72.46
2023-04-26T02:21:21.562Z,71.78
2023-04-26T02:22:25.338Z,71.96
2023-04-26T02:23:27.397Z,72.28
2023-04-26T02:24:30.576Z,72.21
2023-04-26T02:25:34.002Z,72.88
2023-04-26T02:26:36.434Z,73.00
2023-04-26T02:27:38.637Z,72.51
2023-04-26T02:28:40.557Z,72.52
2023-04-26T02:29:44.248Z,72.26
2023-04-26T02:30:47.258Z,71.96
2023-04-26T02:31:49.599Z,71.86
2023-04-26T02:32:54.521Z,71.83
2023-04-26T02:33:56.461Z,71.49
2023-04-26T02:34:58.382Z,71.50
2023-04-26T02:36:04.411Z,71.35
2023-04-26T02:37:07.716Z,71.45
2023-04-26T02:38:09.787Z,71.99
2023-04-26T02:39:12.169Z,72.02
2023-04-26T02:40:14.181Z,71.70
2023-04-26T02:41:16.136Z,71.54
2023-04-26T02:42:18.403Z,71.71
2023-04-26T02:43:21.640Z,71.32
2023-04-26T02:44:24.292Z,71.62
2023-04-26T02:45:26.597Z,71.39
2023-04-26T02:46:28.561Z,71.18
2023-04-26T02:47:30.867Z,71.23
2023-04-26T02:48:33.259Z,71.49
2023-04-26T02:49:35.245Z,71.40
2023-04-26T02:50:37.147Z,71.85
2023-04-26T02:51:39.453Z,72.22
2023-04-26T02:52:41.733Z,72.25
2023-04-26T02:53:43.671Z,71.97
2023-04-26T02:54:45.531Z,72.23
2023-04-26T02:55:47.391Z,72.00
2023-04-26T02:56:49.376Z,71.76
2023-04-26T02:57:51.633Z,72.13
2023-04-26T02:58:53.761Z,72.07
2023-04-26T02:59:56.258Z,71.80
2023-04-26T03:01:01.415Z,71.86
2023-04-26T03:02:03.824Z,71.88
2023-04-26T03:03:06.135Z,71.33
2023-04-26T03:04:08.254Z,72.48
2023-04-26T03:05:10.756Z,72.97
2023-04-26T03:06:12.792Z,73.18
2023-04-26T03:07:14.818Z,73.06
2023-04-26T03:08:17.193Z,72.62
2023-04-26T03:09:19.136Z,72.94
2023-04-26T03:10:21.226Z,73.29
2023-04-26T03:11:23.085Z,73.83
2023-04-26T03:12:25.007Z,73.41
2023-04-26T03:13:27.301Z,74.01
2023-04-26T03:14:29.617Z,73.36
2023-04-26T03:15:31.689Z,72.38
2023-04-26T03:16:42.054Z,72.68
2023-04-26T03:17:44.178Z,73.19
2023-04-26T03:18:46.636Z,73.15
2023-04-26T03:19:49.388Z,72.81
2023-04-26T03:20:52.640Z,72.56
2023-04-26T03:21:56.229Z,72.80
2023-04-26T03:22:58.193Z,72.76
2023-04-26T03:24:00.997Z,72.56
2023-04-26T03:25:04.036Z,72.20
2023-04-26T03:26:06.193Z,72.00
2023-04-26T03:27:08.262Z,72.22
2023-04-26T03:28:10.176Z,72.14
2023-04-26T03:29:12.537Z,73.10
2023-04-26T03:30:14.989Z,72.35
2023-04-26T03:31:19.369Z,71.94
2023-04-26T03:32:21.322Z,72.40
2023-04-26T03:33:24.044Z,72.45
2023-04-26T03:34:27.365Z,71.57
2023-04-26T03:35:29.647Z,71.56
2023-04-26T03:36:31.625Z,72.15
2023-04-26T03:37:33.620Z,72.08
2023-04-26T03:38:36.706Z,71.82
2023-04-26T03:39:41.636Z,72.27
2023-04-26T03:40:44.488Z,72.24
2023-04-26T03:41:46.404Z,72.01
2023-04-26T03:42:49.271Z,72.12
2023-04-26T03:43:51.171Z,72.05
2023-04-26T03:44:53.508Z,72.25
2023-04-26T03:45:57.139Z,71.20
2023-04-26T03:46:59.400Z,71.47
2023-04-26T03:48:01.778Z,71.88
2023-04-26T03:49:04.109Z,71.97
2023-04-26T03:50:08.172Z,72.31
2023-04-26T03:51:10.143Z,72.07
2023-04-26T03:52:12.086Z,72.51
2023-04-26T03:53:13.972Z,72.22
2023-04-26T03:54:16.068Z,71.88
2023-04-26T03:55:18.330Z,71.84
2023-04-26T03:56:21.661Z,72.17
2023-04-26T03:57:23.764Z,73.02
2023-04-26T03:58:26.360Z,72.67
2023-04-26T03:59:28.274Z,72.17
2023-04-26T04:00:31.027Z,72.34
2023-04-26T04:01:33.811Z,72.51
2023-04-26T04:02:36.226Z,72.53
2023-04-26T04:03:40.649Z,71.42
2023-04-26T04:04:43.401Z,71.78
2023-04-26T04:05:45.817Z,72.40
2023-04-26T04:06:48.447Z,72.12
2023-04-26T04:07:50.344Z,72.06
2023-04-26T04:08:52.591Z,71.49
2023-04-26T04:09:54.683Z,72.01
2023-04-26T04:10:56.946Z,71.89
2023-04-26T04:11:59.878Z,71.42
2023-04-26T04:13:01.964Z,71.35
2023-04-26T04:14:05.037Z,71.59
2023-04-26T04:15:08.269Z,71.97
2023-04-26T04:16:11.082Z,72.31
2023-04-26T04:17:13.308Z,71.87
2023-04-26T04:18:15.527Z,70.53
2023-04-26T04:19:18.587Z,70.86
2023-04-26T04:20:22.180Z,71.61
2023-04-26T04:21:24.334Z,71.19
2023-04-26T04:22:26.975Z,71.46
2023-04-26T04:23:28.950Z,70.75
2023-04-26T04:24:32.760Z,70.66
2023-04-26T04:25:36.599Z,70.65
2023-04-26T04:26:42.487Z,70.59
2023-04-26T04:27:45.205Z,70.30
2023-04-26T04:28:47.537Z,70.47
2023-04-26T04:29:49.548Z,70.27
2023-04-26T04:30:51.581Z,69.92
2023-04-26T04:31:53.608Z,70.32
2023-04-26T04:32:58.914Z,68.40
2023-04-26T04:34:01.478Z,68.75
2023-04-26T04:35:03.694Z,69.19
2023-04-26T04:36:06.944Z,68.66
2023-04-26T04:37:09.716Z,68.91
2023-04-26T04:38:12.186Z,68.47
2023-04-26T04:39:16.261Z,72.21
2023-04-26T04:40:18.893Z,69.21
2023-04-26T04:41:22.428Z,68.91
2023-04-26T04:42:26.966Z,68.04
2023-04-26T04:43:32.668Z,67.64
2023-04-26T04:44:35.259Z,66.94
2023-04-26T04:45:38.945Z,66.35
2023-04-26T04:46:41.300Z,66.56
2023-04-26T04:47:43.931Z,65.89
2023-04-26T04:48:46.133Z,66.16
2023-04-26T04:49:48.027Z,65.27
2023-04-26T04:50:50.027Z,65.14
2023-04-26T04:51:52.060Z,65.16
2023-04-26T04:52:54.229Z,64.58
2023-04-26T04:53:57.732Z,63.01
2023-04-26T04:55:01.183Z,62.76
2023-04-26T04:56:04.048Z,63.37
2023-04-26T04:57:06.693Z,64.04
2023-04-26T04:58:08.993Z,64.79
2023-04-26T04:59:12.001Z,63.72
2023-04-26T05:00:15.974Z,63.89
2023-04-26T05:01:18.626Z,63.22
2023-04-26T05:02:21.194Z,62.57
2023-04-26T05:03:23.430Z,62.89
2023-04-26T05:04:26.256Z,62.93
2023-04-26T05:05:28.926Z,61.81
2023-04-26T05:06:33.850Z,62.16
2023-04-26T05:07:35.860Z,61.94
2023-04-26T05:08:37.742Z,60.81
2023-04-26T05:09:40.361Z,60.65
2023-04-26T05:10:42.301Z,60.92
2023-04-26T05:11:44.788Z,61.27
2023-04-26T05:12:47.019Z,61.39
2023-04-26T05:13:50.883Z,61.00
2023-04-26T05:14:54.646Z,60.59
2023-04-26T05:15:56.672Z,61.79
2023-04-26T05:16:58.581Z,61.74
2023-04-26T05:18:01.186Z,62.29
2023-04-26T05:19:03.701Z,62.14
2023-04-26T05:20:07.368Z,61.46
2023-04-26T05:21:09.428Z,61.35
2023-04-26T05:22:11.950Z,62.70
2023-04-26T05:23:13.957Z,62.78
2023-04-26T05:24:15.860Z,62.88
2023-04-26T05:25:19.737Z,62.44
2023-04-26T05:26:23.905Z,62.28
2023-04-26T05:27:28.770Z,60.95
2023-04-26T05:28:37.275Z,61.61
2023-04-26T05:29:39.870Z,61.70
2023-04-26T05:30:43.088Z,62.72
2023-04-26T05:31:45.292Z,62.40
2023-04-26T05:32:47.704Z,61.53
2023-04-26T05:33:49.981Z,61.22
2023-04-26T05:34:52.352Z,61.71
2023-04-26T05:35:55.209Z,61.68
2023-04-26T05:36:57.222Z,61.55
2023-04-26T05:37:59.082Z,62.50
2023-04-26T05:39:01.658Z,61.17
2023-04-26T05:40:04.756Z,60.32
2023-04-26T05:41:07.281Z,60.03
2023-04-26T05:42:09.307Z,60.49
2023-04-26T05:43:11.245Z,60.15
2023-04-26T05:44:14.711Z,59.38
2023-04-26T05:45:16.796Z,58.50
2023-04-26T05:46:19.290Z,58.99
2023-04-26T05:47:21.231Z,59.10
2023-04-26T05:48:24.447Z,57.81
2023-04-26T05:49:26.408Z,57.09
2023-04-26T05:50:28.526Z,57.12
2023-04-26T05:51:30.929Z,57.29
2023-04-26T05:52:33.515Z,57.38
2023-04-26T05:53:36.670Z,57.84
2023-04-26T05:54:38.558Z,57.69
2023-04-26T05:55:42.167Z,57.97
2023-04-26T05:56:44.445Z,57.61
2023-04-26T05:57:46.427Z,56.42
2023-04-26T05:58:48.544Z,59.57
2023-04-26T05:59:50.686Z,55.83
2023-04-26T06:00:53.067Z,54.73
2023-04-26T06:01:55.573Z,54.98
2023-04-26T06:02:58.327Z,54.25
2023-04-26T06:04:01.572Z,53.33
2023-04-26T06:05:09.261Z,53.33
2023-04-26T06:06:11.752Z,52.49
2023-04-26T06:07:14.415Z,52.96
2023-04-26T06:08:16.578Z,54.15
2023-04-26T06:09:20.162Z,53.92
2023-04-26T06:10:22.988Z,53.83
2023-04-26T06:11:25.083Z,53.46
2023-04-26T06:12:28.761Z,54.09
2023-04-26T06:13:31.221Z,53.88
2023-04-26T06:14:33.449Z,53.66
2023-04-26T06:15:36.075Z,53.68
2023-04-26T06:16:38.004Z,53.03
2023-04-26T06:17:41.980Z,51.99
2023-04-26T06:18:44.309Z,51.84
2023-04-26T06:19:47.441Z,51.80
2023-04-26T06:20:49.532Z,51.91
2023-04-26T06:21:54.879Z,52.96
2023-04-26T06:22:57.320Z,52.80
2023-04-26T06:23:59.179Z,52.58
2023-04-26T06:25:01.796Z,51.30
2023-04-26T06:26:03.919Z,51.41
2023-04-26T06:27:05.958Z,50.88
2023-04-26T06:28:08.700Z,50.87
2023-04-26T06:29:10.640Z,50.84
2023-04-26T06:30:12.874Z,49.96
2023-04-26T06:31:15.231Z,49.13
2023-04-26T06:32:17.201Z,49.09
2023-04-26T06:33:19.756Z,48.42
2023-04-26T06:34:21.634Z,48.67
2023-04-26T06:35:24.702Z,48.45
2023-04-26T06:36:28.190Z,47.98
2023-04-26T06:37:30.307Z,47.70
2023-04-26T06:38:32.596Z,47.68
2023-04-26T06:39:34.809Z,47.13
2023-04-26T06:40:40.089Z,46.97
2023-04-26T06:41:42.020Z,47.55
2023-04-26T06:42:45.169Z,46.68
2023-04-26T06:43:48.731Z,46.95
2023-04-26T06:44:52.961Z,47.56
2023-04-26T06:45:54.958Z,45.92
2023-04-26T06:46:57.281Z,45.13
2023-04-26T06:48:00.864Z,46.51
2023-04-26T06:49:03.200Z,46.91
2023-04-26T06:50:05.893Z,45.50
2023-04-26T06:51:08.700Z,53.98
2023-04-26T06:52:10.555Z,46.12
2023-04-26T06:53:12.502Z,43.78
2023-04-26T06:54:14.653Z,41.53
2023-04-26T06:55:16.600Z,41.37
2023-04-26T06:56:18.965Z,43.46
2023-04-26T06:57:21.046Z,42.18
2023-04-26T06:58:23.135Z,44.96
2023-04-26T06:59:25.371Z,42.19
2023-04-26T07:00:28.390Z,42.56
2023-04-26T07:01:34.036Z,42.37
2023-04-26T07:02:36.213Z,41.80
2023-04-26T07:03:42.494Z,42.44
2023-04-26T07:04:45.170Z,42.85
2023-04-26T07:05:47.545Z,42.37
2023-04-26T07:06:50.259Z,42.24
2023-04-26T07:07:52.164Z,42.10
2023-04-26T07:08:54.560Z,41.40
2023-04-26T07:09:57.028Z,41.94
2023-04-26T07:10:58.934Z,42.24
2023-04-26T07:12:01.273Z,40.67
2023-04-26T07:13:03.116Z,41.53
2023-04-26T07:14:05.665Z,41.56
2023-04-26T07:15:09.251Z,41.56
2023-04-26T07:16:11.320Z,41.66
2023-04-26T07:17:13.283Z,39.07
2023-04-26T07:18:15.268Z,39.70
2023-04-26T07:19:18.051Z,39.36
2023-04-26T07:20:22.720Z,39.56
2023-04-26T07:21:25.488Z,40.27
2023-04-26T07:22:27.447Z,39.24
2023-04-26T07:23:29.805Z,39.04
2023-04-26T07:24:31.741Z,38.98
2023-04-26T07:25:34.125Z,39.18
2023-04-26T07:26:38.922Z,39.40
2023-04-26T07:27:40.825Z,39.33
2023-04-26T07:28:42.679Z,39.67
2023-04-26T07:29:44.546Z,39.22
2023-04-26T07:30:46.759Z,39.56
2023-04-26T07:31:49.669Z,39.59
2023-04-26T07:32:53.287Z,39.04
2023-04-26T07:33:56.117Z,38.35
2023-04-26T07:34:58.247Z,38.44
2023-04-26T07:36:01.669Z,38.31
2023-04-26T07:37:04.525Z,38.66
2023-04-26T07:38:07.305Z,36.89
2023-04-26T07:39:10.747Z,37.35
2023-04-26T07:40:13.721Z,37.18
2023-04-26T07:41:17.639Z,38.94
2023-04-26T07:42:19.558Z,38.75
2023-04-26T07:43:21.808Z,38.37
2023-04-26T07:44:23.677Z,38.33
2023-04-26T07:45:25.770Z,38.00
2023-04-26T07:46:27.956Z,38.69
2023-04-26T07:47:29.868Z,38.16
2023-04-26T07:48:32.059Z,37.76
2023-04-26T07:49:33.967Z,37.02
2023-04-26T07:50:36.244Z,38.01
2023-04-26T07:51:38.425Z,37.20
2023-04-26T07:52:40.528Z,36.67
2023-04-26T07:53:42.470Z,36.33
2023-04-26T07:54:46.520Z,36.95
2023-04-26T07:55:49.753Z,38.29
2023-04-26T07:56:51.931Z,37.92
2023-04-26T07:57:53.846Z,37.22
2023-04-26T07:58:56.270Z,38.05
2023-04-26T07:59:58.626Z,43.96
2023-04-26T08:01:00.908Z,40.11
2023-04-26T08:02:03.103Z,37.87
2023-04-26T08:03:05.560Z,38.97
2023-04-26T08:04:08.527Z,37.68
2023-04-26T08:05:11.617Z,36.88
2023-04-26T08:06:14.485Z,38.75
2023-04-26T08:07:17.114Z,37.69
2023-04-26T08:08:19.064Z,36.80
2023-04-26T08:09:21.412Z,35.37
2023-04-26T08:10:23.466Z,37.05
2023-04-26T08:11:25.436Z,38.41
2023-04-26T08:12:27.640Z,37.29
2023-04-26T08:13:29.694Z,37.58
2023-04-26T08:14:31.693Z,41.75
2023-04-26T08:15:33.775Z,37.35
2023-04-26T08:16:36.239Z,35.21
2023-04-26T08:17:38.995Z,35.05
2023-04-26T08:18:41.232Z,36.99
2023-04-26T08:19:43.368Z,36.49
2023-04-26T08:20:45.349Z,37.06
2023-04-26T08:21:47.350Z,35.00
2023-04-26T08:22:49.499Z,36.02
2023-04-26T08:23:51.603Z,36.82
2023-04-26T08:24:55.671Z,35.47
2023-04-26T08:25:57.663Z,35.16
2023-04-26T08:26:59.840Z,36.99
2023-04-26T08:28:02.594Z,36.74
2023-04-26T08:29:04.517Z,37.60
2023-04-26T08:30:07.295Z,35.34
2023-04-26T08:31:10.184Z,35.47
2023-04-26T08:32:12.281Z,36.32
2023-04-26T08:33:14.414Z,35.44
2023-04-26T08:34:16.236Z,35.61
2023-04-26T08:35:18.215Z,37.89
2023-04-26T08:36:20.680Z,37.38
2023-04-26T08:37:22.988Z,34.64
2023-04-26T08:38:25.574Z,36.21
2023-04-26T08:39:27.696Z,35.89
2023-04-26T08:40:31.237Z,36.00
2023-04-26T08:41:37.556Z,35.57
2023-04-26T08:42:42.421Z,35.82
2023-04-26T08:43:45.003Z,37.01
2023-04-26T08:44:46.933Z,35.86
2023-04-26T08:45:49.194Z,35.21
2023-04-26T08:47:04.067Z,36.91
2023-04-26T08:48:11.871Z,36.32
2023-04-26T08:49:28.050Z,36.84
2023-04-26T08:50:31.041Z,36.85
2023-04-26T08:51:34.678Z,36.95
2023-04-26T08:52:38.254Z,36.46
2023-04-26T08:53:41.039Z,35.83
2023-04-26T08:54:45.878Z,35.97
2023-04-26T08:55:51.202Z,36.57
2023-04-26T08:56:55.323Z,36.82
2023-04-26T08:57:57.649Z,36.44
2023-04-26T08:59:00.180Z,37.43
2023-04-26T09:00:05.897Z,35.88
2023-04-26T09:01:09.350Z,35.88
2023-04-26T09:02:17.277Z,35.96
2023-04-26T09:03:19.341Z,35.85
2023-04-26T09:04:21.559Z,35.51
2023-04-26T09:05:24.684Z,36.36
2023-04-26T09:06:28.263Z,35.41
2023-04-26T09:07:38.708Z,36.06
2023-04-26T09:08:41.760Z,36.08
2023-04-26T09:09:47.741Z,36.42
2023-04-26T09:10:49.955Z,35.62
2023-04-26T09:11:57.953Z,36.29
2023-04-26T09:12:59.889Z,34.69
2023-04-26T09:14:02.044Z,36.55
2023-04-26T09:15:07.202Z,35.85
2023-04-26T09:16:09.448Z,35.57
2023-04-26T09:17:26.775Z,34.58
2023-04-26T09:18:28.746Z,34.09
2023-04-26T09:19:44.305Z,34.44
2023-04-26T09:20:47.900Z,34.27
2023-04-26T09:21:50.456Z,34.39
2023-04-26T09:22:54.546Z,33.70
2023-04-26T09:24:04.284Z,33.94
2023-04-26T09:25:07.259Z,35.47
2023-04-26T09:26:20.410Z,34.07
2023-04-26T09:27:22.793Z,33.13
2023-04-26T09:28:24.749Z,34.24
2023-04-26T09:29:26.717Z,35.00
2023-04-26T09:30:29.362Z,34.92
2023-04-26T09:31:40.143Z,34.98
2023-04-26T09:32:58.524Z,34.25
2023-04-26T09:34:01.260Z,34.27
2023-04-26T09:35:04.619Z,34.05
2023-04-26T09:36:13.463Z,33.26
2023-04-26T09:37:15.401Z,32.72
2023-04-26T09:38:18.653Z,32.76
2023-04-26T09:39:39.917Z,32.75
2023-04-26T09:40:44.262Z,33.08
2023-04-26T09:41:46.193Z,32.35
2023-04-26T09:42:59.006Z,32.04
2023-04-26T09:44:01.259Z,32.45
2023-04-26T09:45:07.048Z,33.30
2023-04-26T09:46:09.522Z,32.70
2023-04-26T09:47:12.420Z,32.69
2023-04-26T09:48:17.003Z,33.80
2023-04-26T09:49:19.237Z,33.94
2023-04-26T09:50:31.212Z,33.20
2023-04-26T09:51:33.271Z,33.19
2023-04-26T09:52:44.459Z,33.01
2023-04-26T09:53:48.210Z,32.51
2023-04-26T09:54:52.251Z,31.75
2023-04-26T09:55:58.184Z,31.45
2023-04-26T09:57:01.754Z,32.41
2023-04-26T09:58:10.432Z,32.01
2023-04-26T09:59:12.277Z,32.62
2023-04-26T10:00:15.715Z,31.96
2023-04-26T10:01:19.713Z,31.71
2023-04-26T10:02:24.306Z,31.84
2023-04-26T10:03:27.346Z,33.02
2023-04-26T10:04:29.907Z,32.74
2023-04-26T10:05:34.148Z,30.11
2023-04-26T10:06:36.551Z,29.89
2023-04-26T10:07:39.294Z,30.01
2023-04-26T10:08:41.316Z,30.09
2023-04-26T10:09:43.612Z,31.04
2023-04-26T10:10:47.403Z,30.47
2023-04-26T10:11:49.601Z,31.05
2023-04-26T10:12:51.577Z,31.50
2023-04-26T10:13:53.657Z,34.95
2023-04-26T10:14:57.641Z,32.20
2023-04-26T10:16:01.569Z,32.28
2023-04-26T10:17:05.522Z,31.94
2023-04-26T10:18:08.729Z,31.72
2023-04-26T10:19:11.704Z,31.66
2023-04-26T10:20:15.278Z,31.02
2023-04-26T10:21:31.513Z,30.55
2023-04-26T10:22:39.858Z,30.81
2023-04-26T10:23:42.581Z,30.69
2023-04-26T10:24:45.173Z,31.11
2023-04-26T10:25:48.206Z,32.01
2023-04-26T10:26:53.073Z,31.63
2023-04-26T10:27:55.883Z,30.93
2023-04-26T10:29:02.182Z,30.85
2023-04-26T10:30:09.347Z,30.32
2023-04-26T10:31:11.468Z,31.01
2023-04-26T10:32:17.584Z,31.36
2023-04-26T10:33:20.619Z,30.70
2023-04-26T10:34:23.109Z,30.31
2023-04-26T10:35:26.769Z,31.45
2023-04-26T10:36:28.611Z,31.15
2023-04-26T10:37:30.777Z,31.61
2023-04-26T10:38:33.769Z,32.50
2023-04-26T10:39:36.841Z,31.88
2023-04-26T10:40:40.329Z,31.15
2023-04-26T10:41:42.178Z,31.57
2023-04-26T10:42:44.069Z,30.37
2023-04-26T10:43:46.257Z,29.43
2023-04-26T10:44:48.337Z,29.49
2023-04-26T10:45:50.405Z,29.68
2023-04-26T10:46:55.012Z,29.39
2023-04-26T10:48:15.312Z,29.79
2023-04-26T10:49:19.550Z,29.47
2023-04-26T10:50:21.443Z,31.24
2023-04-26T10:51:23.434Z,31.19
2023-04-26T10:52:25.383Z,30.35
2023-04-26T10:53:28.127Z,31.42
2023-04-26T10:54:48.709Z,31.71
2023-04-26T10:55:51.574Z,29.99
2023-04-26T10:56:53.677Z,29.35
2023-04-26T10:57:57.404Z,30.14
2023-04-26T10:59:33.044Z,29.77
2023-04-26T11:00:35.762Z,29.67
2023-04-26T11:01:38.471Z,30.76
2023-04-26T11:02:53.666Z,31.41
2023-04-26T11:03:59.310Z,30.30
2023-04-26T11:05:04.310Z,35.67
2023-04-26T11:06:13.718Z,30.45
2023-04-26T11:07:16.237Z,31.09
2023-04-26T11:08:19.711Z,31.13
2023-04-26T11:09:41.806Z,31.03
2023-04-26T11:10:45.597Z,30.06
2023-04-26T11:11:53.513Z,31.33
2023-04-26T11:13:06.098Z,31.22
2023-04-26T11:14:09.184Z,30.87
2023-04-26T11:15:13.276Z,30.76
2023-04-26T11:16:17.474Z,30.24
2023-04-26T11:17:20.888Z,29.98
2023-04-26T11:18:22.894Z,29.49
2023-04-26T11:19:27.455Z,29.43
2023-04-26T11:20:31.786Z,31.26
2023-04-26T11:21:33.706Z,30.66
2023-04-26T11:22:40.928Z,29.83
2023-04-26T11:23:44.062Z,29.56
2023-04-26T11:24:47.598Z,28.82
2023-04-26T11:25:50.059Z,29.12
2023-04-26T11:26:53.291Z,29.65
2023-04-26T11:28:02.500Z,29.10
2023-04-26T11:29:08.033Z,29.23
2023-04-26T11:30:10.651Z,29.51
2023-04-26T11:31:14.484Z,29.25
2023-04-26T11:32:16.508Z,29.44
2023-04-26T11:33:25.045Z,28.61
2023-04-26T11:34:38.257Z,28.67
2023-04-26T11:35:40.684Z,28.51
2023-04-26T11:36:44.903Z,27.12
2023-04-26T11:37:46.998Z,28.72
2023-04-26T11:38:49.127Z,29.45
2023-04-26T11:39:51.370Z,29.45
2023-04-26T11:41:03.783Z,29.00
2023-04-26T11:42:10.125Z,28.59
2023-04-26T11:43:13.952Z,28.23
2023-04-26T11:44:20.876Z,27.33
2023-04-26T11:45:22.983Z,28.40
2023-04-26T11:46:25.532Z,29.04
2023-04-26T11:47:30.886Z,29.43
2023-04-26T11:48:35.480Z,29.32
2023-04-26T11:49:38.228Z,28.76
2023-04-26T11:50:41.257Z,29.28
2023-04-26T11:51:43.488Z,30.55
2023-04-26T11:52:46.105Z,29.92
2023-04-26T11:53:47.934Z,29.92
2023-04-26T11:54:50.116Z,28.96
2023-04-26T11:55:52.437Z,28.79
2023-04-26T11:56:54.681Z,28.67
2023-04-26T11:57:57.340Z,28.01
2023-04-26T11:59:00.038Z,28.84
2023-04-26T12:00:28.534Z,27.99
2023-04-26T12:01:30.889Z,27.89
2023-04-26T12:02:35.889Z,28.16
2023-04-26T12:03:38.312Z,28.31
2023-04-26T12:04:41.296Z,27.73
2023-04-26T12:05:43.619Z,28.76
2023-04-26T12:06:46.896Z,30.31
2023-04-26T12:07:57.618Z,30.39
2023-04-26T12:09:03.130Z,29.70
2023-04-26T12:10:18.374Z,30.37
2023-04-26T12:11:20.250Z,30.37
2023-04-26T12:12:24.397Z,30.94
2023-04-26T12:13:26.781Z,31.08
2023-04-26T12:14:32.459Z,30.84
2023-04-26T12:15:34.996Z,30.44
2023-04-26T12:16:37.392Z,30.05
2023-04-26T12:17:39.797Z,30.93
2023-04-26T12:18:41.948Z,30.54
2023-04-26T12:19:44.049Z,29.83
2023-04-26T12:20:48.743Z,30.54
2023-04-26T12:21:52.131Z,30.34
2023-04-26T12:23:04.249Z,30.46
2023-04-26T12:24:06.079Z,31.13
2023-04-26T12:25:08.618Z,30.91
2023-04-26T12:26:12.115Z,32.15
2023-04-26T12:27:21.361Z,30.86
2023-04-26T12:28:24.788Z,30.42
2023-04-26T12:29:28.862Z,28.91
2023-04-26T12:30:31.359Z,29.15
2023-04-26T12:31:36.945Z,29.64
2023-04-26T12:32:38.833Z,29.64
2023-04-26T12:33:41.039Z,30.10
2023-04-26T12:34:42.979Z,30.74
2023-04-26T12:35:45.146Z,30.26
2023-04-26T12:36:47.133Z,30.68
2023-04-26T12:37:52.151Z,30.98
2023-04-26T12:38:54.380Z,29.80
2023-04-26T12:39:56.465Z,32.05
2023-04-26T12:40:58.514Z,32.17
2023-04-26T12:42:00.426Z,30.99
2023-04-26T12:43:02.275Z,29.91
2023-04-26T12:44:04.604Z,30.08
2023-04-26T12:45:07.926Z,30.91
2023-04-26T12:46:09.806Z,30.95
2023-04-26T12:47:11.674Z,30.51
2023-04-26T12:48:13.801Z,31.34
2023-04-26T12:49:16.185Z,31.21
2023-04-26T12:50:18.766Z,31.99
2023-04-26T12:51:20.964Z,32.11
2023-04-26T12:52:22.842Z,32.59
2023-04-26T12:53:24.891Z,33.42
2023-04-26T12:54:27.023Z,33.03
2023-04-26T12:55:31.936Z,32.16
2023-04-26T12:56:37.954Z,33.64
2023-04-26T12:57:41.950Z,34.19
2023-04-26T12:58:43.872Z,33.77
2023-04-26T12:59:46.062Z,33.56
2023-04-26T13:00:48.724Z,32.93
2023-04-26T13:01:50.730Z,31.59
2023-04-26T13:02:52.780Z,32.19
2023-04-26T13:03:56.614Z,31.76
2023-04-26T13:05:00.500Z,32.11
2023-04-26T13:06:02.696Z,32.13
2023-04-26T13:07:05.061Z,32.41
2023-04-26T13:08:07.075Z,32.18
2023-04-26T13:09:09.070Z,32.66
2023-04-26T13:10:13.209Z,32.77
2023-04-26T13:11:15.299Z,32.52
2023-04-26T13:12:17.281Z,31.72
2023-04-26T13:13:21.964Z,31.50
2023-04-26T13:14:25.802Z,32.14
2023-04-26T13:15:28.446Z,32.02
2023-04-26T13:16:30.419Z,32.37
2023-04-26T13:17:32.371Z,32.63
2023-04-26T13:18:34.320Z,33.63
2023-04-26T13:19:36.237Z,33.60
2023-04-26T13:20:38.736Z,33.27
2023-04-26T13:21:42.109Z,33.01
2023-04-26T13:22:44.065Z,33.52
2023-04-26T13:23:47.212Z,33.31
2023-04-26T13:24:49.094Z,32.76
2023-04-26T13:25:51.371Z,32.82
2023-04-26T13:26:53.557Z,32.35
2023-04-26T13:27:55.601Z,32.17
2023-04-26T13:28:57.673Z,32.49
2023-04-26T13:29:59.665Z,32.59
2023-04-26T13:31:02.463Z,31.79
2023-04-26T13:32:04.438Z,31.33
2023-04-26T13:33:06.879Z,31.38
2023-04-26T13:34:09.759Z,31.19
2023-04-26T13:35:12.279Z,31.21